Time;durP1;ratioP1;P1;durP2;ratioP2;P2;SDS_P1;SDS_P2;PMS_P1;PMS_P2;Temp;Humidity;BMP_temperature;BMP_pressure;BME280_temperature;BME280_humidity;BME280_pressure;Samples;Min_cycle;Max_cycle;Signal;HPM_P1;HPM_P2
2021/03/04 00:00:36;;;;;;;150.70;128.63;;;7.30;99.90;;;;;;4997671;28;20485;-82
2021/03/04 00:03:07;;;;;;;152.37;128.27;;;7.30;99.90;;;;;;5013447;28;20481;-82
2021/03/04 00:05:37;;;;;;;146.83;118.57;;;7.30;99.90;;;;;;5010408;28;20478;-82
2021/03/04 00:08:08;;;;;;;133.20;109.80;;;7.10;99.90;;;;;;4994007;28;20953;-82
2021/03/04 00:10:34;;;;;;;119.40;102.50;;;7.10;99.90;;;;;;4995238;28;20465;-82
2021/03/04 00:13:03;;;;;;;139.67;105.50;;;7.00;99.90;;;;;;5013496;28;20457;-82
2021/03/04 00:15:33;;;;;;;130.17;103.83;;;6.90;99.90;;;;;;5007238;28;20968;-83
2021/03/04 00:18:02;;;;;;;137.70;111.57;;;6.90;99.90;;;;;;4993750;28;20458;-82
2021/03/04 00:20:32;;;;;;;132.63;113.33;;;6.80;99.90;;;;;;4998454;28;20461;-82
2021/03/04 00:23:03;;;;;;;149.33;120.73;;;6.70;99.90;;;;;;5008583;28;20536;-82
2021/03/04 00:25:32;;;;;;;160.50;130.17;;;6.80;99.90;;;;;;4995148;28;20462;-82
2021/03/04 00:27:58;;;;;;;153.03;132.90;;;6.80;99.90;;;;;;4997069;28;20461;-82
2021/03/04 00:30:25;;;;;;;143.17;127.67;;;6.70;99.90;;;;;;5013061;28;20957;-82
2021/03/04 00:32:56;;;;;;;158.20;137.37;;;6.80;99.90;;;;;;5011466;28;20462;-82
2021/03/04 00:35:24;;;;;;;161.03;140.50;;;6.70;99.90;;;;;;5013176;28;21000;-82
2021/03/04 00:37:52;;;;;;;158.17;140.83;;;6.80;99.90;;;;;;5011182;28;20872;-82
2021/03/04 00:40:24;;;;;;;154.67;138.17;;;6.80;99.90;;;;;;4992153;28;20458;-82
2021/03/04 00:42:52;;;;;;;148.10;132.70;;;6.90;99.90;;;;;;4994235;28;20489;-81
2021/03/04 00:45:20;;;;;;;146.80;131.50;;;7.00;99.90;;;;;;5013193;28;20516;-82
2021/03/04 00:47:47;;;;;;;134.43;117.03;;;7.00;99.90;;;;;;5012764;28;20500;-82
2021/03/04 00:50:16;;;;;;;132.13;111.97;;;6.90;99.90;;;;;;4973836;28;20542;-82
2021/03/04 00:52:43;;;;;;;118.60;105.80;;;6.90;99.90;;;;;;4973820;28;20840;-82
2021/03/04 00:55:10;;;;;;;123.10;103.63;;;7.00;99.90;;;;;;5010491;28;20885;-82
2021/03/04 00:57:37;;;;;;;130.00;102.67;;;6.90;99.90;;;;;;5004026;28;20517;-82
2021/03/04 01:00:07;;;;;;;127.30;106.93;;;7.00;99.90;;;;;;4993511;28;20458;-82
2021/03/04 01:02:33;;;;;;;130.77;103.80;;;7.00;99.90;;;;;;4993415;28;20514;-82
2021/03/04 01:04:59;;;;;;;120.67;102.57;;;7.00;99.90;;;;;;4993473;28;20540;-82
2021/03/04 01:07:26;;;;;;;145.80;125.37;;;7.00;99.90;;;;;;5000495;28;20460;-82
2021/03/04 01:09:52;;;;;;;181.87;131.40;;;7.00;99.90;;;;;;5015605;28;20461;-82
2021/03/04 01:12:20;;;;;;;170.87;136.40;;;6.90;99.90;;;;;;5011709;28;20458;-82
2021/03/04 01:14:48;;;;;;;157.73;135.17;;;6.90;99.90;;;;;;4997262;28;20492;-82
2021/03/04 01:17:15;;;;;;;172.93;150.23;;;7.00;99.90;;;;;;5000268;28;20478;-82
2021/03/04 01:19:42;;;;;;;177.20;150.93;;;7.00;99.90;;;;;;5016617;28;20512;-82
2021/03/04 01:22:08;;;;;;;182.37;156.40;;;6.90;99.90;;;;;;5014002;28;20457;-82
2021/03/04 01:24:35;;;;;;;195.83;159.20;;;7.00;99.90;;;;;;4995984;28;20820;-82
2021/03/04 01:27:01;;;;;;;196.30;163.87;;;7.10;99.90;;;;;;4997394;28;20541;-82
2021/03/04 01:29:27;;;;;;;198.57;176.13;;;7.20;99.90;;;;;;5016580;28;20485;-82
2021/03/04 01:31:55;;;;;;;189.23;168.77;;;7.30;99.90;;;;;;5014674;28;20465;-82
2021/03/04 01:34:23;;;;;;;186.00;166.77;;;7.40;99.90;;;;;;5012450;28;20541;-82
2021/03/04 01:36:49;;;;;;;192.07;168.87;;;7.40;99.90;;;;;;5015997;28;20972;-82
2021/03/04 01:39:16;;;;;;;185.50;148.47;;;7.40;99.90;;;;;;5016231;28;20519;-81
2021/03/04 01:41:42;;;;;;;157.70;121.53;;;7.50;99.90;;;;;;4996877;28;20515;-81
2021/03/04 01:44:08;;;;;;;166.40;135.27;;;7.40;99.90;;;;;;4999231;28;20509;-81
2021/03/04 01:46:35;;;;;;;171.77;131.97;;;7.40;99.90;;;;;;5012952;28;21031;-81
2021/03/04 01:49:03;;;;;;;179.57;145.93;;;7.40;99.90;;;;;;5015961;28;20523;-81
2021/03/04 01:51:30;;;;;;;172.83;150.57;;;7.40;99.90;;;;;;5000327;28;20466;-81
2021/03/04 01:53:56;;;;;;;200.07;157.67;;;7.30;99.90;;;;;;4996244;28;20997;-80
2021/03/04 01:56:23;;;;;;;207.00;173.50;;;7.30;99.90;;;;;;4994544;28;20508;-81
2021/03/04 01:58:49;;;;;;;214.10;191.37;;;7.20;99.90;;;;;;4996299;28;20454;-81
2021/03/04 02:01:53;;;;;;;229.40;205.80;;;7.20;99.90;;;;;;4983902;28;20451;-81
2021/03/04 02:04:20;;;;;;;254.93;229.93;;;7.20;99.90;;;;;;4976609;28;20510;-81
2021/03/04 02:06:54;;;;;;;270.20;244.17;;;7.30;99.90;;;;;;5008758;28;20930;-81
2021/03/04 02:09:24;;;;;;;286.20;257.97;;;7.30;99.90;;;;;;5015676;28;20870;-81
2021/03/04 02:11:55;;;;;;;291.23;265.43;;;7.20;99.90;;;;;;4998317;28;20457;-81
2021/03/04 02:14:27;;;;;;;317.63;290.23;;;7.20;99.90;;;;;;4995765;28;20855;-81
2021/03/04 02:16:56;;;;;;;314.00;285.93;;;7.20;99.90;;;;;;5011574;28;20980;-82
2021/03/04 02:19:39;;;;;;;324.97;296.17;;;7.10;99.90;;;;;;5014472;28;20803;-81
2021/03/04 02:22:18;;;;;;;333.73;303.80;;;7.20;99.90;;;;;;4993646;28;20486;-81
2021/03/04 02:24:53;;;;;;;319.87;291.30;;;7.20;99.90;;;;;;4995844;28;20484;-81
2021/03/04 02:27:25;;;;;;;317.43;289.90;;;7.00;99.90;;;;;;5015406;28;20869;-82
2021/03/04 02:29:59;;;;;;;337.40;309.80;;;7.00;99.90;;;;;;5013191;28;21015;-82
2021/03/04 02:32:27;;;;;;;325.97;297.67;;;6.90;99.90;;;;;;4995626;28;20456;-81
2021/03/04 02:34:59;;;;;;;359.23;328.43;;;6.90;99.90;;;;;;5012523;28;20592;-82
2021/03/04 02:37:30;;;;;;;360.70;330.60;;;6.80;99.90;;;;;;5015304;28;20496;-82
2021/03/04 02:40:00;;;;;;;378.10;343.80;;;6.90;99.90;;;;;;4996595;28;20450;-81
2021/03/04 02:42:28;;;;;;;368.87;336.73;;;6.90;99.90;;;;;;4995698;28;20462;-81
2021/03/04 02:44:57;;;;;;;376.17;345.07;;;6.80;99.90;;;;;;5011284;28;20519;-82
2021/03/04 02:47:24;;;;;;;380.77;347.00;;;6.80;99.90;;;;;;5014843;28;20999;-81
2021/03/04 02:49:51;;;;;;;384.53;350.83;;;6.50;99.90;;;;;;5000502;28;20455;-81
2021/03/04 02:52:19;;;;;;;398.83;364.97;;;6.40;99.90;;;;;;4995121;28;20517;-81
2021/03/04 02:54:48;;;;;;;401.80;369.17;;;6.30;99.90;;;;;;5007843;28;20454;-82
2021/03/04 02:57:16;;;;;;;410.50;376.23;;;6.30;99.90;;;;;;4963991;28;20445;-82
2021/03/04 02:59:45;;;;;;;436.63;396.13;;;6.30;99.90;;;;;;5001717;28;20500;-82
2021/03/04 03:02:12;;;;;;;444.83;405.93;;;6.30;99.90;;;;;;4995054;28;20823;-82
2021/03/04 03:04:41;;;;;;;481.50;441.40;;;6.30;99.90;;;;;;5006752;28;20456;-81
2021/03/04 03:07:10;;;;;;;488.50;444.87;;;6.40;99.90;;;;;;5014631;28;20453;-81
2021/03/04 03:09:38;;;;;;;479.83;438.87;;;6.50;99.90;;;;;;5002114;28;20450;-81
2021/03/04 03:12:06;;;;;;;442.60;405.47;;;6.50;99.90;;;;;;4994881;28;20961;-81
2021/03/04 03:14:32;;;;;;;465.17;425.87;;;6.50;99.90;;;;;;5004517;28;20452;-81
2021/03/04 03:17:00;;;;;;;460.20;423.00;;;6.40;99.90;;;;;;5014527;28;20485;-81
2021/03/04 03:19:27;;;;;;;464.43;426.17;;;6.50;99.90;;;;;;5005693;28;20453;-81
2021/03/04 03:21:54;;;;;;;465.70;426.73;;;6.50;99.90;;;;;;4995028;28;20466;-81
2021/03/04 03:24:20;;;;;;;479.87;440.33;;;6.60;99.90;;;;;;5014104;28;20488;-81
2021/03/04 03:26:46;;;;;;;491.93;452.23;;;6.70;99.90;;;;;;5013120;28;20491;-81
2021/03/04 03:29:13;;;;;;;504.07;460.33;;;6.50;99.90;;;;;;4995082;28;20481;-81
2021/03/04 03:31:41;;;;;;;482.57;443.47;;;6.60;99.90;;;;;;4994551;28;20859;-81
2021/03/04 03:34:09;;;;;;;484.67;446.10;;;6.50;99.90;;;;;;4996627;28;20550;-81
2021/03/04 03:36:37;;;;;;;499.70;458.23;;;6.40;99.90;;;;;;4998461;28;20468;-81
2021/03/04 03:39:08;;;;;;;471.83;435.53;;;6.40;99.90;;;;;;5011911;28;21017;-81
2021/03/04 03:41:36;;;;;;;481.03;442.73;;;6.40;99.90;;;;;;4994654;28;20463;-80
2021/03/04 03:44:02;;;;;;;479.90;440.30;;;6.40;99.90;;;;;;4994037;28;20497;-82
2021/03/04 03:46:32;;;;;;;473.97;436.90;;;6.50;99.90;;;;;;4994170;28;20561;-82
2021/03/04 03:49:03;;;;;;;477.50;437.10;;;6.60;99.90;;;;;;4994332;28;20529;-82
2021/03/04 03:51:40;;;;;;;466.83;428.93;;;6.70;99.90;;;;;;4994274;28;20489;-81
2021/03/04 03:54:08;;;;;;;471.53;430.87;;;6.60;99.90;;;;;;4993674;28;20510;-81
2021/03/04 03:56:36;;;;;;;461.93;425.80;;;6.70;99.90;;;;;;4994479;28;20826;-82
2021/03/04 03:59:04;;;;;;;461.80;424.40;;;6.80;99.90;;;;;;4996237;28;20446;-82
2021/03/04 04:01:33;;;;;;;457.23;419.93;;;6.80;99.90;;;;;;5005810;28;20536;-81
2021/03/04 04:04:00;;;;;;;453.63;417.87;;;6.80;99.90;;;;;;4993823;28;20526;-81
2021/03/04 04:06:29;;;;;;;446.47;407.07;;;6.80;99.90;;;;;;5008692;28;20992;-81
2021/03/04 04:08:58;;;;;;;440.13;403.47;;;6.90;99.90;;;;;;5006613;28;20457;-81
2021/03/04 04:11:25;;;;;;;427.30;390.33;;;6.90;99.90;;;;;;5001088;28;20485;-81
2021/03/04 04:13:52;;;;;;;418.97;383.10;;;6.90;99.90;;;;;;4997235;28;21041;-81
2021/03/04 04:16:19;;;;;;;395.93;360.93;;;6.90;99.90;;;;;;5007753;28;20460;-81
2021/03/04 04:18:46;;;;;;;389.87;356.67;;;6.90;99.90;;;;;;5010783;28;20481;-81
2021/03/04 04:21:13;;;;;;;385.13;349.37;;;6.90;99.90;;;;;;5007535;28;20449;-82
2021/03/04 04:23:41;;;;;;;394.60;359.80;;;6.90;99.90;;;;;;5011851;28;20528;-81
2021/03/04 04:26:09;;;;;;;367.20;336.17;;;6.90;99.90;;;;;;5000729;28;20824;-82
2021/03/04 04:28:37;;;;;;;383.87;351.53;;;7.00;99.90;;;;;;5012868;28;20453;-82
2021/03/04 04:31:04;;;;;;;370.57;338.77;;;6.80;99.90;;;;;;4992111;28;20840;-81
2021/03/04 04:33:31;;;;;;;377.57;344.80;;;7.00;99.90;;;;;;4996874;28;20485;-81
2021/03/04 04:35:57;;;;;;;390.67;356.07;;;7.10;99.90;;;;;;5007542;28;20449;-81
2021/03/04 04:38:24;;;;;;;401.17;366.23;;;7.10;99.90;;;;;;4993510;28;20524;-81
2021/03/04 04:40:53;;;;;;;416.87;380.80;;;7.20;99.90;;;;;;5009517;28;20457;-81
2021/03/04 04:43:21;;;;;;;425.27;387.53;;;7.20;99.90;;;;;;4993854;28;20572;-81
2021/03/04 04:45:47;;;;;;;426.00;386.20;;;7.20;99.90;;;;;;5009428;28;20888;-81
2021/03/04 04:48:14;;;;;;;396.43;361.63;;;7.20;99.90;;;;;;5013105;28;20488;-82
2021/03/04 04:50:40;;;;;;;411.07;374.70;;;7.30;99.90;;;;;;4997884;28;20860;-82
2021/03/04 04:53:07;;;;;;;408.00;370.60;;;7.30;99.90;;;;;;4997276;28;20919;-81
2021/03/04 04:55:33;;;;;;;404.50;366.70;;;7.20;99.90;;;;;;5010849;28;20460;-81
2021/03/04 04:58:01;;;;;;;389.83;353.23;;;7.20;99.90;;;;;;4993600;28;20847;-81
2021/03/04 05:00:28;;;;;;;386.37;348.70;;;7.20;99.90;;;;;;5000570;28;20447;-81
2021/03/04 05:02:55;;;;;;;388.60;350.80;;;7.20;99.90;;;;;;5012819;28;20996;-81
2021/03/04 05:05:21;;;;;;;400.80;360.93;;;7.20;99.90;;;;;;4998440;28;20504;-81
2021/03/04 05:07:49;;;;;;;404.13;364.70;;;7.10;99.90;;;;;;4993256;28;20493;-81
2021/03/04 05:10:16;;;;;;;408.50;369.20;;;7.00;99.90;;;;;;5004484;28;20465;-81
2021/03/04 05:12:45;;;;;;;407.60;367.97;;;7.10;99.90;;;;;;4998783;28;21015;-82
2021/03/04 05:15:12;;;;;;;390.97;353.07;;;7.10;99.90;;;;;;4992849;28;20465;-81
2021/03/04 05:17:42;;;;;;;397.53;355.70;;;7.00;99.90;;;;;;4993138;28;20458;-83
2021/03/04 05:20:10;;;;;;;411.90;368.77;;;7.00;99.90;;;;;;4998240;28;20465;-81
2021/03/04 05:22:37;;;;;;;396.37;354.10;;;7.00;99.90;;;;;;4997069;28;20485;-81
2021/03/04 05:25:07;;;;;;;404.17;363.30;;;7.00;99.90;;;;;;5002183;28;21062;-82
2021/03/04 05:27:34;;;;;;;404.03;366.27;;;7.00;99.90;;;;;;5012797;28;20476;-81
2021/03/04 05:30:00;;;;;;;406.33;367.73;;;7.10;99.90;;;;;;5008699;28;20524;-82
2021/03/04 05:32:26;;;;;;;398.03;357.77;;;7.10;99.90;;;;;;4993028;28;20961;-82
2021/03/04 05:34:54;;;;;;;381.03;343.03;;;7.10;99.90;;;;;;4995449;28;20515;-81
2021/03/04 05:37:20;;;;;;;394.43;354.83;;;7.00;99.90;;;;;;5012714;28;20532;-81
2021/03/04 05:39:48;;;;;;;380.47;341.80;;;7.00;99.90;;;;;;5010134;28;20481;-81
2021/03/04 05:42:19;;;;;;;395.40;355.80;;;7.10;99.90;;;;;;4992906;28;20446;-81
2021/03/04 05:44:46;;;;;;;420.97;376.03;;;7.10;99.90;;;;;;4993337;28;20482;-81
2021/03/04 05:47:17;;;;;;;417.37;376.30;;;7.10;99.90;;;;;;5011608;28;20488;-83
2021/03/04 05:49:47;;;;;;;428.70;384.13;;;7.00;99.90;;;;;;4994497;28;20458;-77
2021/03/04 05:52:17;;;;;;;402.40;359.80;;;7.00;99.90;;;;;;4992893;28;20884;-77
2021/03/04 05:54:45;;;;;;;416.60;371.27;;;6.90;99.90;;;;;;5010192;28;20457;-82
2021/03/04 05:57:14;;;;;;;404.47;362.33;;;7.00;99.90;;;;;;5015968;28;20453;-82
2021/03/04 05:59:41;;;;;;;429.00;386.27;;;7.00;99.90;;;;;;5003022;28;20490;-82
2021/03/04 06:02:09;;;;;;;292.43;264.83;;;6.90;99.90;;;;;;4996296;28;20458;-81
2021/03/04 06:04:35;;;;;;;330.37;300.30;;;6.80;99.90;;;;;;4996112;28;20494;-82
2021/03/04 06:07:02;;;;;;;287.43;258.10;;;6.70;99.90;;;;;;4996332;28;21036;-80
2021/03/04 06:09:30;;;;;;;332.57;298.60;;;6.60;99.90;;;;;;4995764;28;20469;-81
2021/03/04 06:12:01;;;;;;;337.77;303.00;;;6.50;99.90;;;;;;4995570;28;20445;-81
2021/03/04 06:14:28;;;;;;;307.57;230.13;;;6.40;99.90;;;;;;4995999;28;20465;-80
2021/03/04 06:16:55;;;;;;;311.70;270.60;;;6.40;99.90;;;;;;5006998;28;20860;-81
2021/03/04 06:19:24;;;;;;;376.10;335.83;;;6.30;99.90;;;;;;5015541;28;20449;-82
2021/03/04 06:21:59;;;;;;;379.47;340.40;;;6.20;99.90;;;;;;4999165;28;20454;-81
2021/03/04 06:24:28;;;;;;;388.57;347.40;;;6.30;99.90;;;;;;4995704;28;20492;-83
2021/03/04 06:27:30;;;;;;;;;;;;;;;;;;;;;
2021/03/04 06:30:03;;;;;;;402.73;314.33;;;6.10;99.90;;;;;;4995248;28;20457;-83
2021/03/04 06:32:35;;;;;;;400.43;336.03;;;6.20;99.90;;;;;;4976479;28;20461;-82
2021/03/04 06:35:08;;;;;;;409.40;365.80;;;6.20;99.90;;;;;;4976165;28;20542;-83
2021/03/04 06:37:55;;;;;;;;;;;;;;;;;;;;;
2021/03/04 06:40:25;;;;;;;461.00;414.60;;;6.20;99.90;;;;;;4961141;28;20549;-85
2021/03/04 06:42:59;;;;;;;483.93;418.80;;;6.10;99.90;;;;;;5013249;28;20471;-82
2021/03/04 06:45:32;;;;;;;457.17;414.30;;;6.20;99.90;;;;;;5003013;28;20860;-83
2021/03/04 06:48:12;;;;;;;358.07;327.13;;;6.10;99.90;;;;;;5003741;28;20450;-81
2021/03/04 06:50:41;;;;;;;350.70;315.23;;;6.10;99.90;;;;;;4995431;28;20450;-82
2021/03/04 06:53:15;;;;;;;342.37;308.83;;;6.00;99.90;;;;;;4996882;28;20478;-84
2021/03/04 06:55:49;;;;;;;221.40;204.03;;;6.00;99.90;;;;;;4994238;28;20485;-83
2021/03/04 06:58:27;;;;;;;213.47;191.33;;;6.00;99.90;;;;;;4995203;28;20925;-83
2021/03/04 07:04:48;;;;;;;256.70;227.90;;;5.80;99.90;;;;;;4908440;29;20917;-83
2021/03/04 07:07:28;;;;;;;;;;;;;;;;;;;;;
2021/03/04 07:09:59;;;;;;;166.97;153.47;;;5.80;99.90;;;;;;4981048;28;20500;-84
2021/03/04 07:12:26;;;;;;;158.17;145.03;;;5.80;99.90;;;;;;4994897;28;20463;-83
2021/03/04 07:15:02;;;;;;;201.33;183.00;;;5.80;99.90;;;;;;5001712;28;20484;-84
2021/03/04 07:17:28;;;;;;;190.47;175.83;;;5.80;99.90;;;;;;5014460;28;20461;-82
2021/03/04 07:19:58;;;;;;;297.93;240.33;;;5.80;99.90;;;;;;5007114;28;20450;-82
2021/03/04 07:22:30;;;;;;;469.57;312.30;;;5.80;99.90;;;;;;5000280;28;20460;-83
2021/03/04 07:24:57;;;;;;;319.30;286.27;;;5.80;99.90;;;;;;5012863;28;21153;-81
2021/03/04 07:27:24;;;;;;;275.30;247.60;;;5.90;99.90;;;;;;5014190;28;20457;-82
2021/03/04 07:29:53;;;;;;;241.17;216.90;;;5.80;99.90;;;;;;5014288;28;20511;-81
2021/03/04 07:32:22;;;;;;;288.80;248.47;;;5.80;99.90;;;;;;5014155;28;20540;-82
2021/03/04 07:34:54;;;;;;;311.83;275.87;;;5.80;99.90;;;;;;5014161;28;20461;-82
2021/03/04 07:37:20;;;;;;;364.00;310.47;;;5.90;99.90;;;;;;5014240;28;20468;-81
2021/03/04 07:39:57;;;;;;;425.30;334.23;;;6.00;99.90;;;;;;5012793;28;21019;-82
2021/03/04 07:42:24;;;;;;;566.07;373.47;;;6.00;99.90;;;;;;5013982;28;20519;-81
2021/03/04 07:44:51;;;;;;;405.80;351.90;;;6.10;99.90;;;;;;5015536;28;20493;-82
2021/03/04 07:47:25;;;;;;;504.90;373.13;;;6.00;99.90;;;;;;5014063;28;20467;-82
2021/03/04 07:49:52;;;;;;;519.70;396.67;;;6.00;99.90;;;;;;5013714;28;20538;-82
2021/03/04 07:52:20;;;;;;;415.67;370.93;;;6.20;99.90;;;;;;5009962;28;20619;-81
2021/03/04 07:54:48;;;;;;;379.17;338.40;;;6.10;99.90;;;;;;4990350;28;20513;-81
2021/03/04 07:57:15;;;;;;;433.23;358.87;;;6.00;99.90;;;;;;4992371;28;20449;-81
2021/03/04 07:59:55;;;;;;;512.77;372.63;;;6.10;99.90;;;;;;4992811;28;20454;-81
2021/03/04 08:02:26;;;;;;;407.50;362.03;;;6.10;99.90;;;;;;4992523;28;20636;-81
2021/03/04 08:05:04;;;;;;;507.40;385.30;;;6.10;99.90;;;;;;4992383;28;20580;-80
2021/03/04 08:07:32;;;;;;;429.13;383.87;;;6.20;99.90;;;;;;4992185;28;20469;-81
2021/03/04 08:10:07;;;;;;;414.63;372.53;;;6.10;99.90;;;;;;4991189;28;20465;-81
2021/03/04 08:12:48;;;;;;;440.97;379.23;;;6.10;99.90;;;;;;4992481;28;20489;-81
2021/03/04 08:15:15;;;;;;;421.70;376.97;;;6.10;99.90;;;;;;4992059;28;20458;-81
2021/03/04 08:17:45;;;;;;;387.13;351.97;;;6.20;99.90;;;;;;4991614;28;20473;-81
2021/03/04 08:20:13;;;;;;;407.30;367.77;;;6.10;99.90;;;;;;4992197;28;20533;-81
2021/03/04 08:22:45;;;;;;;402.73;364.63;;;6.00;99.90;;;;;;4992187;28;20458;-81
2021/03/04 08:25:13;;;;;;;375.53;341.67;;;6.00;99.90;;;;;;4991072;28;20472;-80
2021/03/04 08:27:41;;;;;;;373.70;336.57;;;6.00;99.90;;;;;;4992057;28;20557;-81
2021/03/04 08:30:10;;;;;;;395.03;364.00;;;6.00;99.90;;;;;;4992129;28;20460;-81
2021/03/04 08:32:37;;;;;;;366.33;333.40;;;6.10;99.90;;;;;;4992073;28;20608;-81
2021/03/04 08:35:15;;;;;;;377.13;343.67;;;6.20;99.90;;;;;;4992101;28;20469;-80
2021/03/04 08:37:42;;;;;;;387.60;357.90;;;6.40;99.90;;;;;;4991880;28;20537;-81
2021/03/04 08:40:09;;;;;;;384.27;355.93;;;6.50;99.90;;;;;;4989165;28;20542;-81
2021/03/04 08:42:35;;;;;;;356.80;330.90;;;6.40;99.90;;;;;;4992770;28;20454;-81
2021/03/04 08:45:02;;;;;;;346.30;320.17;;;6.40;99.90;;;;;;4992681;28;20615;-81
2021/03/04 08:47:28;;;;;;;337.80;312.33;;;6.40;99.90;;;;;;4992649;28;20560;-81
2021/03/04 08:49:59;;;;;;;303.77;282.33;;;6.40;99.90;;;;;;4992631;28;20552;-81
2021/03/04 08:52:28;;;;;;;240.80;224.33;;;6.30;99.90;;;;;;4992216;28;20489;-81
2021/03/04 08:54:56;;;;;;;249.97;233.27;;;6.30;99.90;;;;;;4991700;28;20457;-81
2021/03/04 08:57:24;;;;;;;258.70;241.90;;;6.30;99.90;;;;;;4992849;28;20473;-81
2021/03/04 09:00:04;;;;;;;206.83;193.13;;;6.20;99.90;;;;;;4992693;28;20465;-81
2021/03/04 09:02:40;;;;;;;216.40;203.13;;;6.40;99.90;;;;;;4992817;28;20552;-82
2021/03/04 09:05:09;;;;;;;199.93;187.23;;;6.30;99.90;;;;;;4994681;28;20539;-81
2021/03/04 09:07:50;;;;;;;196.60;184.30;;;6.30;99.90;;;;;;4992782;28;20897;-81
2021/03/04 09:10:16;;;;;;;197.37;184.20;;;6.30;99.90;;;;;;4991631;28;20446;-82
2021/03/04 09:12:44;;;;;;;185.43;174.13;;;6.50;99.90;;;;;;4992935;28;20504;-82
2021/03/04 09:15:14;;;;;;;214.10;201.60;;;6.60;99.90;;;;;;4992703;28;20454;-81
2021/03/04 09:17:41;;;;;;;188.87;177.83;;;6.70;99.90;;;;;;4991185;28;20885;-80
2021/03/04 09:20:12;;;;;;;209.30;195.80;;;6.80;99.90;;;;;;4992698;28;20541;-81
2021/03/04 09:22:41;;;;;;;177.40;167.10;;;6.90;99.90;;;;;;4992757;28;20457;-80
2021/03/04 09:25:10;;;;;;;198.80;185.97;;;7.10;99.90;;;;;;4991526;28;20896;-81
2021/03/04 09:27:37;;;;;;;197.77;186.13;;;7.30;99.90;;;;;;4992740;28;20504;-81
2021/03/04 09:30:05;;;;;;;145.20;137.10;;;7.50;99.90;;;;;;4996522;28;20553;-81
2021/03/04 09:32:32;;;;;;;84.57;79.20;;;7.30;99.90;;;;;;4996192;28;20487;-80
2021/03/04 09:34:58;;;;;;;94.70;88.53;;;7.20;99.90;;;;;;4996387;28;20469;-81
2021/03/04 09:37:30;;;;;;;117.77;110.30;;;6.90;99.90;;;;;;4996119;28;20454;-82
2021/03/04 09:39:59;;;;;;;90.30;84.90;;;6.80;99.90;;;;;;4995129;28;20453;-81
2021/03/04 09:42:34;;;;;;;96.00;90.03;;;6.90;99.90;;;;;;4996015;28;20490;-81
2021/03/04 09:45:03;;;;;;;82.77;77.27;;;6.80;99.90;;;;;;4995714;28;21035;-81
2021/03/04 09:47:37;;;;;;;82.60;77.60;;;6.70;99.90;;;;;;4996206;28;20505;-81
2021/03/04 09:50:17;;;;;;;92.73;86.87;;;6.50;99.90;;;;;;4996170;28;20473;-81
2021/03/04 09:52:46;;;;;;;105.50;98.97;;;6.60;99.90;;;;;;4995833;28;20515;-80
2021/03/04 09:55:17;;;;;;;107.67;100.10;;;6.60;99.90;;;;;;4994921;28;20462;-80
2021/03/04 09:57:45;;;;;;;109.17;102.07;;;6.70;99.90;;;;;;4995796;28;20473;-81
2021/03/04 10:00:24;;;;;;;108.43;101.33;;;6.70;99.90;;;;;;4995884;28;20942;-80
2021/03/04 10:02:52;;;;;;;110.87;103.57;;;6.50;99.90;;;;;;4995963;28;20453;-80
2021/03/04 10:05:20;;;;;;;97.60;91.30;;;6.50;99.90;;;;;;4995838;28;20481;-80
2021/03/04 10:07:47;;;;;;;112.93;105.10;;;6.50;99.90;;;;;;4995391;28;20466;-80
2021/03/04 10:10:18;;;;;;;106.77;100.67;;;6.50;99.90;;;;;;4994745;28;20478;-80
2021/03/04 10:12:49;;;;;;;99.63;93.93;;;6.50;99.90;;;;;;4995715;28;20461;-80
2021/03/04 10:15:30;;;;;;;109.73;103.00;;;6.50;99.90;;;;;;4995781;28;20493;-80
2021/03/04 10:17:58;;;;;;;108.17;101.07;;;6.50;99.90;;;;;;4996026;28;20458;-80
2021/03/04 10:20:25;;;;;;;90.13;84.80;;;6.50;99.90;;;;;;4995913;28;20460;-81
2021/03/04 10:22:52;;;;;;;102.73;96.23;;;6.40;99.90;;;;;;4995940;28;20537;-80
2021/03/04 10:25:19;;;;;;;102.83;95.63;;;6.40;99.90;;;;;;4994666;28;20565;-81
2021/03/04 10:27:46;;;;;;;130.53;121.93;;;6.30;99.90;;;;;;4995927;28;20458;-81
2021/03/04 10:30:15;;;;;;;121.13;113.87;;;6.40;99.90;;;;;;4995842;28;20489;-81
2021/03/04 10:32:42;;;;;;;106.20;99.50;;;6.40;99.90;;;;;;4995894;28;20450;-80
2021/03/04 10:35:11;;;;;;;112.43;105.63;;;6.40;99.90;;;;;;4996378;28;20462;-80
2021/03/04 10:37:38;;;;;;;117.03;110.13;;;6.30;99.90;;;;;;4995626;28;20455;-80
2021/03/04 10:40:08;;;;;;;141.03;131.80;;;6.30;99.90;;;;;;4993725;28;20462;-80
2021/03/04 10:42:39;;;;;;;152.10;142.17;;;6.20;99.90;;;;;;4995584;28;20459;-80
2021/03/04 10:45:08;;;;;;;159.63;150.13;;;6.20;99.90;;;;;;4995587;28;20493;-81
2021/03/04 10:50:12;;;;;;;194.83;182.43;;;6.20;99.90;;;;;;5391677;23;20497;-79
2021/03/04 10:52:38;;;;;;;190.67;179.20;;;6.20;99.90;;;;;;4976001;28;20447;-80
2021/03/04 10:55:07;;;;;;;183.90;172.27;;;6.10;99.90;;;;;;4974760;28;20501;-80
2021/03/04 10:57:34;;;;;;;170.10;159.50;;;6.20;99.90;;;;;;4975797;28;20451;-79
2021/03/04 11:00:04;;;;;;;172.77;161.40;;;6.20;99.90;;;;;;4975629;28;20471;-80
2021/03/04 11:02:30;;;;;;;155.87;146.13;;;6.30;99.90;;;;;;4975851;28;20597;-80
2021/03/04 11:04:57;;;;;;;168.33;157.47;;;6.20;99.90;;;;;;4975613;28;21029;-79
2021/03/04 11:07:23;;;;;;;155.07;144.67;;;6.20;99.90;;;;;;4975617;28;20490;-79
2021/03/04 11:09:51;;;;;;;169.93;158.33;;;6.20;99.90;;;;;;4974551;28;20597;-80
2021/03/04 11:12:18;;;;;;;142.83;133.77;;;6.30;99.90;;;;;;4975595;28;20469;-82
2021/03/04 11:14:59;;;;;;;166.70;155.87;;;6.20;99.90;;;;;;4975582;28;20467;-83
2021/03/04 11:17:28;;;;;;;155.27;145.67;;;6.20;99.90;;;;;;4975521;28;20510;-82
2021/03/04 11:19:55;;;;;;;153.17;144.60;;;6.20;99.90;;;;;;4975439;28;20459;-83
2021/03/04 11:22:21;;;;;;;131.87;124.20;;;6.20;99.90;;;;;;4975507;28;20529;-82
2021/03/04 11:24:48;;;;;;;132.70;124.70;;;6.10;99.90;;;;;;4974280;28;20491;-83
2021/03/04 11:27:15;;;;;;;130.53;122.43;;;6.20;99.90;;;;;;4975359;28;20455;-83
2021/03/04 11:29:41;;;;;;;134.77;126.37;;;6.20;99.90;;;;;;4975106;28;20463;-82
2021/03/04 11:32:08;;;;;;;140.20;130.87;;;6.20;99.90;;;;;;4975263;28;21203;-82
2021/03/04 11:34:35;;;;;;;146.97;137.70;;;6.10;99.90;;;;;;4976513;28;20538;-82
2021/03/04 11:37:02;;;;;;;145.90;136.60;;;6.20;99.90;;;;;;4975175;28;20502;-82
2021/03/04 11:39:28;;;;;;;139.43;130.43;;;6.20;99.90;;;;;;4975002;28;20545;-82
2021/03/04 11:41:55;;;;;;;138.33;129.47;;;6.20;99.90;;;;;;4973945;28;20546;-82
2021/03/04 11:44:21;;;;;;;161.40;150.60;;;6.10;99.90;;;;;;4977567;28;20482;-82
2021/03/04 11:46:48;;;;;;;156.93;146.97;;;6.10;99.90;;;;;;4974992;28;20459;-82
2021/03/04 11:49:14;;;;;;;128.13;120.70;;;6.10;99.90;;;;;;4974503;28;20581;-83
2021/03/04 11:51:41;;;;;;;148.57;139.33;;;6.00;99.90;;;;;;4974709;28;20549;-82
2021/03/04 11:54:08;;;;;;;150.63;141.73;;;6.00;99.90;;;;;;4974686;28;20569;-82
2021/03/04 11:56:34;;;;;;;154.17;144.77;;;6.10;99.90;;;;;;4973759;28;20546;-82
2021/03/04 11:59:02;;;;;;;169.03;157.63;;;6.00;99.90;;;;;;4974845;28;20542;-82
2021/03/04 12:01:28;;;;;;;195.27;183.50;;;6.00;99.90;;;;;;4975135;28;20478;-82
2021/03/04 12:03:55;;;;;;;166.37;156.00;;;6.10;99.90;;;;;;4974763;28;20581;-83
2021/03/04 12:06:22;;;;;;;190.57;178.40;;;6.00;99.90;;;;;;4974631;28;20496;-82
2021/03/04 12:08:49;;;;;;;167.67;157.03;;;6.00;99.90;;;;;;4974520;28;20455;-83
2021/03/04 12:11:15;;;;;;;197.53;184.83;;;5.90;99.90;;;;;;4973807;28;20602;-82
2021/03/04 12:13:42;;;;;;;193.53;180.53;;;5.90;99.90;;;;;;4978100;28;20553;-81
2021/03/04 12:16:09;;;;;;;218.63;204.50;;;5.80;99.90;;;;;;4972634;28;20455;-81
2021/03/04 12:18:35;;;;;;;194.60;183.10;;;5.90;99.90;;;;;;4972632;28;20962;-81
2021/03/04 12:21:02;;;;;;;178.13;168.10;;;5.80;99.90;;;;;;4972797;28;20489;-81
2021/03/04 12:23:29;;;;;;;159.50;151.10;;;5.70;99.90;;;;;;4972747;28;20475;-81
2021/03/04 12:25:57;;;;;;;194.27;182.60;;;5.70;99.90;;;;;;4971865;28;20487;-81
2021/03/04 12:28:24;;;;;;;153.10;144.30;;;5.60;99.90;;;;;;4972708;28;20487;-81
2021/03/04 12:30:50;;;;;;;130.47;123.37;;;5.60;99.90;;;;;;4972711;28;20534;-82
2021/03/04 12:33:17;;;;;;;131.37;123.73;;;5.50;99.90;;;;;;4972765;28;20458;-81
2021/03/04 12:35:43;;;;;;;128.27;120.67;;;5.60;99.90;;;;;;4972780;28;20547;-82